createdAt,value
2018-07-20T00:03:28.897Z,82.50
2018-07-20T00:08:32.136Z,82.00
2018-07-20T00:13:35.329Z,82.10
2018-07-20T00:18:42.495Z,82.40
2018-07-20T00:23:45.746Z,82.80
2018-07-20T00:28:48.967Z,82.60
2018-07-20T00:33:52.189Z,83.10
2018-07-20T00:38:55.754Z,83.70
2018-07-20T00:43:58.986Z,84.20
2018-07-20T00:49:02.214Z,84.50
2018-07-20T00:54:05.433Z,85.00
2018-07-20T00:59:08.779Z,85.10
2018-07-20T01:04:11.996Z,85.10
2018-07-20T01:09:15.199Z,85.20
2018-07-20T01:14:18.393Z,85.80
2018-07-20T01:19:21.591Z,85.70
2018-07-20T01:24:24.803Z,86.30
2018-07-20T01:29:28.013Z,86.10
2018-07-20T01:34:31.309Z,86.70
2018-07-20T01:39:34.534Z,86.80
2018-07-20T01:44:37.753Z,87.20
2018-07-20T01:49:40.968Z,87.00
2018-07-20T01:54:44.177Z,87.50
2018-07-20T01:59:47.346Z,87.90
2018-07-20T02:04:50.538Z,87.80
2018-07-20T02:09:53.682Z,87.80
2018-07-20T02:14:57.985Z,88.20
2018-07-20T02:20:01.147Z,88.40
2018-07-20T02:25:04.305Z,88.70
2018-07-20T02:35:10.784Z,89.80
2018-07-20T02:40:13.955Z,90.00
2018-07-20T02:45:17.127Z,90.00
2018-07-20T02:50:20.262Z,90.10
2018-07-20T02:55:23.424Z,90.40
2018-07-20T03:00:26.575Z,90.50
2018-07-20T03:05:29.746Z,90.70
2018-07-20T03:10:32.942Z,90.70
2018-07-20T03:15:36.213Z,90.60
2018-07-20T03:20:39.377Z,90.50
2018-07-20T03:25:42.533Z,90.70
2018-07-20T03:30:45.682Z,90.90
2018-07-20T03:35:48.850Z,91.00
2018-07-20T03:40:52.653Z,90.70
2018-07-20T03:45:55.849Z,91.10
2018-07-20T03:50:59.041Z,91.00
2018-07-20T03:56:02.198Z,91.10
2018-07-20T04:01:05.409Z,91.60
2018-07-20T04:06:08.601Z,91.40
2018-07-20T04:11:11.795Z,91.40
2018-07-20T04:16:14.998Z,91.30
2018-07-20T04:21:18.194Z,90.90
2018-07-20T04:26:21.438Z,91.20
2018-07-20T04:31:24.683Z,91.10
2018-07-20T04:36:27.938Z,91.30
2018-07-20T04:41:31.122Z,91.30
2018-07-20T04:46:34.345Z,91.30
2018-07-20T04:51:37.550Z,91.90
2018-07-20T04:56:40.818Z,91.70
2018-07-20T05:01:43.993Z,91.40
2018-07-20T05:06:47.177Z,90.70
2018-07-20T05:11:51.442Z,90.90
2018-07-20T05:16:54.588Z,91.00
2018-07-20T05:21:57.762Z,90.50
2018-07-20T05:27:00.990Z,90.30
2018-07-20T05:32:04.197Z,90.40
2018-07-20T05:37:10.553Z,90.10
2018-07-20T05:42:13.838Z,90.10
2018-07-20T05:47:17.090Z,90.10
2018-07-20T05:52:20.307Z,90.00
2018-07-20T05:57:23.526Z,89.60
2018-07-20T06:02:26.751Z,88.70
2018-07-20T06:07:30.061Z,88.40
2018-07-20T06:12:33.313Z,89.00
2018-07-20T06:17:36.561Z,88.90
2018-07-20T06:22:39.778Z,87.20
2018-07-20T06:27:43.062Z,86.40
2018-07-20T06:32:46.456Z,83.20
2018-07-20T06:37:50.812Z,79.90
2018-07-20T06:42:54.532Z,76.00
2018-07-20T06:47:57.797Z,75.90
2018-07-20T06:53:01.097Z,72.70
2018-07-20T06:58:04.277Z,72.90
2018-07-20T07:03:07.455Z,71.30
2018-07-20T07:08:10.781Z,72.40
2018-07-20T07:13:14.238Z,70.00
2018-07-20T07:18:23.873Z,69.40
2018-07-20T07:23:27.200Z,69.40
2018-07-20T07:28:30.472Z,69.60
2018-07-20T07:33:33.742Z,68.30
2018-07-20T07:38:40.723Z,67.20
2018-07-20T07:43:43.891Z,65.40
2018-07-20T07:48:47.111Z,63.40
2018-07-20T07:53:50.279Z,62.70
2018-07-20T07:58:53.523Z,64.40
2018-07-20T08:03:56.762Z,63.90
2018-07-20T08:08:59.961Z,63.50
2018-07-20T08:14:04.507Z,62.60
2018-07-20T08:19:07.941Z,62.20
2018-07-20T08:24:11.106Z,60.80
2018-07-20T08:29:14.595Z,62.00
2018-07-20T08:34:17.765Z,59.70
2018-07-20T08:44:23.988Z,57.20
2018-07-20T08:49:27.922Z,60.00
2018-07-20T08:54:31.097Z,59.20
2018-07-20T08:59:34.271Z,58.60
2018-07-20T09:04:37.522Z,59.50
2018-07-20T09:09:41.566Z,58.40
2018-07-20T09:14:44.785Z,59.80
2018-07-20T09:19:47.986Z,60.20
2018-07-20T09:24:51.194Z,60.00
2018-07-20T09:29:56.469Z,59.70
2018-07-20T09:34:59.698Z,58.50
2018-07-20T09:40:02.898Z,59.10
2018-07-20T09:45:06.307Z,59.30
2018-07-20T09:50:09.522Z,58.60
2018-07-20T09:55:14.920Z,58.50
2018-07-20T10:00:23.531Z,58.50
2018-07-20T10:05:26.825Z,58.20
2018-07-20T10:10:30.056Z,58.40
2018-07-20T10:15:33.430Z,57.60
2018-07-20T10:20:36.693Z,56.10
2018-07-20T10:25:42.177Z,56.30
2018-07-20T10:30:45.407Z,57.20
2018-07-20T10:35:49.654Z,56.70
2018-07-20T10:40:52.866Z,55.20
2018-07-20T10:45:56.126Z,53.00
2018-07-20T10:51:00.702Z,52.80
2018-07-20T10:56:03.892Z,53.50
2018-07-20T11:01:08.610Z,54.60
2018-07-20T11:06:12.014Z,53.40
2018-07-20T11:11:15.197Z,54.10
2018-07-20T11:16:18.401Z,53.50
2018-07-20T11:21:21.606Z,53.00
2018-07-20T11:26:24.821Z,53.50
2018-07-20T11:31:28.046Z,52.90
2018-07-20T11:36:31.274Z,53.60
2018-07-20T11:41:34.474Z,53.10
2018-07-20T11:46:37.689Z,53.10
2018-07-20T11:51:40.846Z,51.40
2018-07-20T11:56:44.118Z,50.90
2018-07-20T12:01:47.327Z,50.60
2018-07-20T12:06:51.655Z,51.00
2018-07-20T12:11:54.869Z,50.70
2018-07-20T12:16:58.106Z,49.50
2018-07-20T12:22:02.289Z,49.80
2018-07-20T12:27:05.706Z,50.00
2018-07-20T12:37:14.039Z,50.60
2018-07-20T12:42:18.150Z,47.70
2018-07-20T12:47:24.109Z,49.20
2018-07-20T12:52:27.463Z,49.50
2018-07-20T12:57:30.742Z,50.40
2018-07-20T13:02:33.949Z,50.10
2018-07-20T13:07:37.327Z,48.00
2018-07-20T13:12:40.625Z,47.10
2018-07-20T13:17:43.892Z,49.40
2018-07-20T13:22:47.191Z,47.00
2018-07-20T13:27:50.562Z,46.70
2018-07-20T13:32:53.802Z,47.30
2018-07-20T13:37:57.126Z,49.00
2018-07-20T13:43:00.342Z,49.70
2018-07-20T13:48:03.655Z,48.70
2018-07-20T13:53:06.922Z,49.90
2018-07-20T13:58:10.126Z,49.60
2018-07-20T14:08:16.475Z,50.10
2018-07-20T14:13:22.718Z,50.50
2018-07-20T14:18:25.869Z,49.90
2018-07-20T14:23:29.145Z,44.60
2018-07-20T14:28:32.320Z,48.00
2018-07-20T14:33:36.718Z,44.70
2018-07-20T14:38:39.903Z,44.00
2018-07-20T14:43:43.168Z,44.40
2018-07-20T14:48:47.479Z,47.70
2018-07-20T14:53:52.693Z,44.40
2018-07-20T14:58:56.000Z,43.20
2018-07-20T15:03:59.333Z,45.50
2018-07-20T15:09:02.550Z,47.20
2018-07-20T15:14:06.905Z,48.50
2018-07-20T15:19:10.216Z,49.10
2018-07-20T15:24:13.542Z,49.40
2018-07-20T15:29:16.798Z,48.20
2018-07-20T15:34:20.139Z,47.80
2018-07-20T15:39:23.412Z,48.40
2018-07-20T15:44:26.647Z,47.20
2018-07-20T15:49:29.865Z,47.00
2018-07-20T15:54:33.449Z,46.40
2018-07-20T15:59:36.618Z,45.90
2018-07-20T16:04:39.783Z,46.30
2018-07-20T16:09:43.311Z,45.70
2018-07-20T16:14:46.526Z,45.70
2018-07-20T16:19:49.701Z,45.70
2018-07-20T16:24:52.861Z,44.50
2018-07-20T16:29:56.047Z,44.80
2018-07-20T16:35:03.246Z,44.50
2018-07-20T16:40:06.450Z,44.70
2018-07-20T16:45:09.643Z,45.10
2018-07-20T16:50:12.886Z,44.80
2018-07-20T16:55:16.034Z,45.40
2018-07-20T17:00:19.221Z,45.10
2018-07-20T17:05:22.441Z,45.60
2018-07-20T17:10:25.744Z,45.60
2018-07-20T17:15:28.964Z,44.00
2018-07-20T17:20:32.234Z,44.80
2018-07-20T17:25:35.491Z,44.00
2018-07-20T17:30:38.790Z,43.80
2018-07-20T17:35:42.110Z,45.40
2018-07-20T17:40:45.390Z,45.90
2018-07-20T17:45:48.878Z,46.00
2018-07-20T17:50:52.122Z,45.60
2018-07-20T17:55:55.369Z,46.80
2018-07-20T18:00:58.554Z,47.30
2018-07-20T18:06:01.717Z,48.60
2018-07-20T18:11:04.914Z,47.60
2018-07-20T18:16:08.086Z,48.80
2018-07-20T18:21:11.330Z,49.10
2018-07-20T18:26:14.489Z,50.10
2018-07-20T18:31:17.650Z,51.40
2018-07-20T18:36:20.955Z,49.70
2018-07-20T18:41:24.298Z,49.90
2018-07-20T18:46:27.517Z,49.00
2018-07-20T18:51:35.039Z,46.40
2018-07-20T18:56:38.302Z,47.70
2018-07-20T19:01:42.694Z,47.40
2018-07-20T19:06:45.995Z,47.80
2018-07-20T19:11:49.329Z,46.90
2018-07-20T19:16:52.605Z,46.40
2018-07-20T19:21:55.874Z,47.00
2018-07-20T19:26:59.547Z,47.30
2018-07-20T19:32:02.820Z,48.50
2018-07-20T19:37:06.210Z,48.80
2018-07-20T19:42:09.540Z,50.00
2018-07-20T19:47:12.753Z,49.90
2018-07-20T19:52:16.023Z,50.10
2018-07-20T19:57:19.196Z,51.60
2018-07-20T20:02:22.427Z,51.40
2018-07-20T20:07:25.698Z,52.40
2018-07-20T20:12:28.917Z,52.80
2018-07-20T20:17:32.346Z,53.60
2018-07-20T20:22:35.646Z,53.30
2018-07-20T20:27:39.043Z,53.60
2018-07-20T20:32:42.374Z,54.30
2018-07-20T20:37:45.605Z,55.30
2018-07-20T20:42:48.913Z,55.90
2018-07-20T20:47:52.194Z,56.80
2018-07-20T20:52:56.554Z,56.80
2018-07-20T20:57:59.752Z,59.40
2018-07-20T21:03:02.959Z,66.10
2018-07-20T21:08:06.371Z,67.80
2018-07-20T21:13:09.625Z,72.20
2018-07-20T21:18:12.794Z,73.00
2018-07-20T21:23:16.002Z,71.00
2018-07-20T21:28:19.194Z,72.70
2018-07-20T21:33:22.421Z,78.50
2018-07-20T21:38:25.586Z,78.20
2018-07-20T21:48:31.875Z,87.60
2018-07-20T21:53:35.142Z,86.90
2018-07-20T21:58:38.385Z,89.70
2018-07-20T22:03:41.615Z,85.50
2018-07-20T22:08:44.775Z,88.60
2018-07-20T22:13:51.424Z,87.00
2018-07-20T22:18:54.610Z,87.50
2018-07-20T22:23:57.802Z,86.80
2018-07-20T22:29:01.070Z,86.00
2018-07-20T22:34:04.375Z,86.20
2018-07-20T22:39:09.504Z,87.00
2018-07-20T22:44:20.084Z,85.20
2018-07-20T22:49:23.270Z,83.40
2018-07-20T22:54:26.425Z,85.10
2018-07-20T22:59:29.647Z,85.70
2018-07-20T23:04:32.866Z,80.40
2018-07-20T23:09:36.493Z,81.30
2018-07-20T23:14:39.730Z,81.80
2018-07-20T23:19:43.015Z,82.20
2018-07-20T23:24:46.355Z,83.20
2018-07-20T23:29:49.648Z,83.10
2018-07-20T23:34:52.889Z,84.40
2018-07-20T23:39:56.129Z,82.20
2018-07-20T23:44:59.326Z,83.10
2018-07-20T23:50:02.598Z,81.90
2018-07-20T23:55:06.621Z,81.80
